MDT,Max TemperatureF,Mean TemperatureF,Min TemperatureF,Max Dew PointF,MeanDew PointF,Min DewpointF,Max Humidity, Mean Humidity, Min Humidity, Max Sea Level PressureIn, Mean Sea Level PressureIn, Min Sea Level PressureIn, Max VisibilityMiles, Mean VisibilityMiles, Min VisibilityMiles, Max Wind SpeedMPH, Mean Wind SpeedMPH, Max Gust SpeedMPH,PrecipitationIn, CloudCover, Events, WindDirDegrees
2013-5-1,37,29,21,24,18,14,85,65,44,30.67,30.42,30.13,10,10,10,14,5,18,0.00,5,,20
2013-5-2,45,33,21,20,17,12,81,56,30,30.69,30.57,30.43,10,10,10,23,5,29,T,2,,295
2013-5-3,54,39,23,21,18,15,74,49,24,30.41,30.23,30.14,10,10,10,15,6,23,0.00,1,,62
2013-5-4,50,38,26,17,15,14,63,44,24,30.26,30.20,30.16,10,10,10,16,7,22,0.00,1,,44
2013-5-5,54,39,24,20,16,11,63,42,21,30.26,30.19,30.12,10,10,10,15,4,18,0.00,0,,92
2013-5-6,62,45,28,25,22,19,69,46,22,30.15,30.04,29.95,10,10,10,14,4,18,0.00,1,,16
2013-5-7,65,49,32,39,31,23,82,54,25,29.96,29.87,29.80,10,10,10,16,4,23,T,3,Rain,350
2013-5-8,64,51,37,38,34,30,92,61,30,30.04,29.96,29.87,10,10,10,21,9,28,0.00,1,,33
2013-5-9,59,48,36,43,38,29,100,67,33,30.22,30.14,30.05,10,8,1,18,3,30,0.11,4,Rain,260
2013-5-10,66,51,35,41,32,21,100,60,20,30.27,30.16,30.11,10,10,6,20,6,26,T,2,,339
2013-5-11,54,43,31,28,24,18,75,55,34,30.34,30.26,30.18,10,10,10,14,5,18,0.00,4,,106
2013-5-12,69,51,32,37,32,26,75,52,29,30.19,30.05,29.95,10,10,10,13,4,21,0.00,2,,184
2013-5-13,83,67,51,40,36,31,59,37,15,29.96,29.88,29.76,10,10,10,18,4,26,0.01,1,,296
2013-5-14,76,63,50,45,37,29,44,36,27,29.83,29.77,29.67,10,10,10,21,8,25,0.00,0,,75
2013-5-15,67,57,47,48,36,27,71,52,32,29.95,29.88,29.83,10,10,10,18,8,26,0.04,1,Rain,107
2013-5-16,71,58,45,50,46,42,93,65,37,29.90,29.77,29.69,10,9,2,15,5,20,0.15,4,Rain,149
2013-5-17,69,56,43,52,48,41,100,78,55,29.82,29.75,29.68,10,10,10,16,7,24,T,1,,73
2013-5-18,68,57,46,52,47,41,86,69,52,29.90,29.76,29.66,10,10,2,21,6,31,0.43,6,Rain,25
2013-5-19,56,50,44,47,43,37,93,77,61,29.81,29.71,29.64,10,10,2,15,5,24,0.11,7,Rain,330
2013-5-20,53,46,39,37,35,33,79,67,54,29.84,29.69,29.57,10,10,8,24,12,39,T,8,Rain,328
2013-5-21,53,46,39,41,36,32,92,73,54,29.96,29.88,29.81,10,10,10,17,5,30,0.01,8,Rain,332
2013-5-22,57,48,38,42,39,36,92,77,61,30.11,29.98,29.87,10,10,4,20,8,26,T,8,Rain,57
2013-5-23,56,48,40,43,38,31,100,75,50,30.19,30.11,29.97,10,8,0,22,13,36,0.01,7,Fog-Rain,119
2013-5-24,76,62,48,49,40,12,93,51,9,30.04,29.89,29.83,10,10,7,20,9,30,0.00,4,,223
2013-5-25,72,59,45,52,50,43,93,70,47,30.07,29.87,29.76,10,10,10,16,6,24,0.00,2,,140
2013-5-26,70,58,45,54,50,45,100,72,44,30.02,29.88,29.74,10,7,0,17,8,24,0.00,5,Fog,57
2013-5-27,70,56,42,55,52,41,100,74,47,29.96,29.81,29.59,10,5,0,15,5,22,0.31,6,Fog-Rain,78
2013-5-28,68,52,35,46,39,32,92,63,34,29.75,29.68,29.58,10,10,10,16,5,26,0.01,1,Rain,320
2013-5-29,62,54,46,48,46,43,86,71,55,29.67,29.56,29.44,10,10,9,17,5,22,0.01,6,Rain,358
2013-5-30,49,45,41,46,42,36,86,81,76,29.59,29.47,29.37,10,9,3,32,17,46,0.03,8,Rain,269
2013-5-31,46,43,40,36,35,33,79,72,65,29.88,29.68,29.52,10,10,10,32,17,47,T,8,Rain,291